Time;durP1;ratioP1;P1;durP2;ratioP2;P2;SDS_P1;SDS_P2;PMS_P1;PMS_P2;Temp;Humidity;BMP_temperature;BMP_pressure;BME280_temperature;BME280_humidity;BME280_pressure;Samples;Min_cycle;Max_cycle;Signal;HPM_P1;HPM_P2
2022/07/24 00:00:11;;;;;;;11.65;10.7;;;;;;;20.59;69.35449;95672.23;;;;
2022/07/24 00:01:12;;;;;;;11.65;10.7;;;;;;;20.59;69.35449;95672.23;;;;
2022/07/24 00:02:13;;;;;;;11.65;10.7;;;;;;;20.59;69.35449;95672.23;;;;
2022/07/24 00:03:13;;;;;;;11.65;10.7;;;;;;;20.59;69.35449;95672.23;;;;
2022/07/24 00:04:14;;;;;;;11.65;10.7;;;;;;;20.59;69.35449;95672.23;;;;
2022/07/24 00:05:14;;;;;;;11.65;10.7;;;;;;;20.59;69.35449;95672.23;;;;
2022/07/24 00:06:15;;;;;;;11.65;10.7;;;;;;;20.59;69.35449;95672.23;;;;
2022/07/24 00:07:16;;;;;;;11.65;10.7;;;;;;;20.59;69.35449;95672.23;;;;
2022/07/24 00:08:16;;;;;;;11.65;10.7;;;;;;;20.59;69.35449;95672.23;;;;
2022/07/24 00:09:17;;;;;;;11.65;10.7;;;;;;;20.59;69.35449;95672.23;;;;
2022/07/24 00:10:18;;;;;;;11.65;10.7;;;;;;;20.59;69.35449;95672.23;;;;
2022/07/24 00:11:18;;;;;;;11.65;10.7;;;;;;;20.59;69.35449;95672.23;;;;
2022/07/24 00:12:19;;;;;;;11.65;10.7;;;;;;;20.59;69.35449;95672.23;;;;
2022/07/24 00:13:20;;;;;;;11.65;10.7;;;;;;;20.59;69.35449;95672.23;;;;
2022/07/24 00:14:20;;;;;;;11.65;10.7;;;;;;;20.59;69.35449;95672.23;;;;
2022/07/24 00:15:20;;;;;;;11.65;10.7;;;;;;;20.59;69.35449;95672.23;;;;
2022/07/24 00:16:21;;;;;;;11.65;10.7;;;;;;;20.59;69.35449;95672.23;;;;
2022/07/24 00:17:22;;;;;;;11.65;10.7;;;;;;;20.59;69.35449;95672.23;;;;
2022/07/24 00:18:22;;;;;;;11.65;10.7;;;;;;;20.59;69.35449;95672.23;;;;
2022/07/24 00:19:23;;;;;;;11.65;10.7;;;;;;;20.59;69.35449;95672.23;;;;
2022/07/24 00:20:24;;;;;;;11.65;10.7;;;;;;;20.59;69.35449;95672.23;;;;
2022/07/24 00:21:25;;;;;;;11.85;10.9;;;;;;;20.32;69.95117;95681.94;;;;
2022/07/24 00:22:25;;;;;;;11.85;10.9;;;;;;;20.32;69.95117;95681.94;;;;
2022/07/24 00:23:26;;;;;;;11.85;10.9;;;;;;;20.32;69.95117;95681.94;;;;
2022/07/24 00:24:26;;;;;;;11.85;10.9;;;;;;;20.32;69.95117;95681.94;;;;
2022/07/24 00:25:27;;;;;;;11.85;10.9;;;;;;;20.32;69.95117;95681.94;;;;
2022/07/24 00:26:27;;;;;;;11.85;10.9;;;;;;;20.32;69.95117;95681.94;;;;
2022/07/24 00:27:28;;;;;;;11.85;10.9;;;;;;;20.32;69.95117;95681.94;;;;
2022/07/24 00:28:29;;;;;;;11.85;10.9;;;;;;;20.32;69.95117;95681.94;;;;
2022/07/24 00:29:30;;;;;;;11.85;10.9;;;;;;;20.32;69.95117;95681.94;;;;
2022/07/24 00:30:30;;;;;;;11.85;10.9;;;;;;;20.32;69.95117;95681.94;;;;
2022/07/24 00:31:31;;;;;;;11.85;10.9;;;;;;;20.32;69.95117;95681.94;;;;
2022/07/24 00:32:31;;;;;;;12.25;11.15;;;;;;;20.27;70.23047;95669.83;;;;
2022/07/24 00:33:32;;;;;;;12.25;11.15;;;;;;;20.27;70.23047;95669.83;;;;
2022/07/24 00:34:33;;;;;;;12.25;11.15;;;;;;;20.27;70.23047;95669.83;;;;
2022/07/24 00:35:33;;;;;;;12.25;11.15;;;;;;;20.27;70.23047;95669.83;;;;
2022/07/24 00:36:34;;;;;;;12.25;11.15;;;;;;;20.27;70.23047;95669.83;;;;
2022/07/24 00:37:35;;;;;;;12.25;11.15;;;;;;;20.27;70.23047;95669.83;;;;
2022/07/24 00:38:35;;;;;;;12.25;11.15;;;;;;;20.27;70.23047;95669.83;;;;
2022/07/24 00:39:36;;;;;;;12.25;11.15;;;;;;;20.27;70.23047;95669.83;;;;
2022/07/24 00:40:36;;;;;;;12.25;11.15;;;;;;;20.27;70.23047;95669.83;;;;
2022/07/24 00:41:37;;;;;;;12.25;11.15;;;;;;;20.27;70.23047;95669.83;;;;
2022/07/24 00:42:38;;;;;;;12.25;11.15;;;;;;;20.27;70.23047;95669.83;;;;
2022/07/24 00:43:39;;;;;;;12.3;11.2;;;;;;;20.18;70.52344;95677.57;;;;
2022/07/24 00:45:14;;;;;;;12.3;11.2;;;;;;;20.18;70.52344;95677.57;;;;
2022/07/24 00:46:14;;;;;;;12.3;11.2;;;;;;;20.18;70.52344;95677.57;;;;
2022/07/24 00:47:18;;;;;;;12.3;11.2;;;;;;;20.18;70.52344;95677.57;;;;
2022/07/24 00:48:19;;;;;;;12.3;11.2;;;;;;;20.18;70.52344;95677.57;;;;
2022/07/24 00:49:19;;;;;;;12.3;11.2;;;;;;;20.18;70.52344;95677.57;;;;
2022/07/24 00:50:21;;;;;;;12.3;11.2;;;;;;;20.18;70.52344;95677.57;;;;
2022/07/24 00:51:21;;;;;;;12.3;11.2;;;;;;;20.18;70.52344;95677.57;;;;
2022/07/24 00:52:23;;;;;;;12.3;11.2;;;;;;;20.18;70.52344;95677.57;;;;
2022/07/24 00:53:23;;;;;;;12.3;11.2;;;;;;;20.18;70.52344;95677.57;;;;
2022/07/24 00:54:24;;;;;;;12.45;11.35;;;;;;;20.26;70.71191;95677.62;;;;
2022/07/24 00:55:24;;;;;;;12.45;11.35;;;;;;;20.26;70.71191;95677.62;;;;
2022/07/24 00:56:25;;;;;;;12.45;11.35;;;;;;;20.26;70.71191;95677.62;;;;
2022/07/24 00:57:26;;;;;;;12.45;11.35;;;;;;;20.26;70.71191;95677.62;;;;
2022/07/24 00:58:26;;;;;;;12.45;11.35;;;;;;;20.26;70.71191;95677.62;;;;
2022/07/24 00:59:27;;;;;;;12.45;11.35;;;;;;;20.26;70.71191;95677.62;;;;
2022/07/24 01:00:27;;;;;;;12.45;11.35;;;;;;;20.26;70.71191;95677.62;;;;
2022/07/24 01:01:28;;;;;;;12.45;11.35;;;;;;;20.26;70.71191;95677.62;;;;
2022/07/24 01:02:29;;;;;;;12.45;11.35;;;;;;;20.26;70.71191;95677.62;;;;
2022/07/24 01:03:29;;;;;;;12.45;11.35;;;;;;;20.26;70.71191;95677.62;;;;
2022/07/24 01:04:30;;;;;;;11.85;10.85;;;;;;;20.28;70.83691;95673.19;;;;
2022/07/24 01:05:30;;;;;;;11.85;10.85;;;;;;;20.28;70.83691;95673.19;;;;
2022/07/24 01:06:31;;;;;;;11.85;10.85;;;;;;;20.28;70.83691;95673.19;;;;
2022/07/24 01:07:31;;;;;;;11.85;10.85;;;;;;;20.28;70.83691;95673.19;;;;
2022/07/24 01:08:32;;;;;;;11.85;10.85;;;;;;;20.28;70.83691;95673.19;;;;
2022/07/24 01:09:33;;;;;;;11.85;10.85;;;;;;;20.28;70.83691;95673.19;;;;
2022/07/24 01:10:34;;;;;;;11.85;10.85;;;;;;;20.28;70.83691;95673.19;;;;
2022/07/24 01:11:35;;;;;;;11.85;10.85;;;;;;;20.28;70.83691;95673.19;;;;
2022/07/24 01:12:36;;;;;;;11.85;10.85;;;;;;;20.28;70.83691;95673.19;;;;
2022/07/24 01:13:38;;;;;;;11.85;10.85;;;;;;;20.28;70.83691;95673.19;;;;
2022/07/24 01:14:40;;;;;;;11.85;10.85;;;;;;;20.28;70.83691;95673.19;;;;
2022/07/24 01:15:40;;;;;;;12;10.9;;;;;;;20.34;70.91211;95669.06;;;;
2022/07/24 01:16:41;;;;;;;12;10.9;;;;;;;20.34;70.91211;95669.06;;;;
2022/07/24 01:17:41;;;;;;;12;10.9;;;;;;;20.34;70.91211;95669.06;;;;
2022/07/24 01:18:42;;;;;;;12;10.9;;;;;;;20.34;70.91211;95669.06;;;;
2022/07/24 01:19:43;;;;;;;12;10.9;;;;;;;20.34;70.91211;95669.06;;;;
2022/07/24 01:20:43;;;;;;;12;10.9;;;;;;;20.34;70.91211;95669.06;;;;
2022/07/24 01:21:45;;;;;;;12;10.9;;;;;;;20.34;70.91211;95669.06;;;;
2022/07/24 01:22:47;;;;;;;12;10.9;;;;;;;20.34;70.91211;95669.06;;;;
2022/07/24 01:23:48;;;;;;;12;10.9;;;;;;;20.34;70.91211;95669.06;;;;
2022/07/24 01:24:48;;;;;;;12;10.9;;;;;;;20.34;70.91211;95669.06;;;;
2022/07/24 01:25:49;;;;;;;12;10.9;;;;;;;20.34;70.91211;95669.06;;;;
2022/07/24 01:26:49;;;;;;;12;10.9;;;;;;;20.34;70.91211;95669.06;;;;
2022/07/24 01:27:55;;;;;;;12;10.9;;;;;;;20.34;70.91211;95669.06;;;;
2022/07/24 01:28:56;;;;;;;12;10.9;;;;;;;20.34;70.91211;95669.06;;;;
2022/07/24 01:29:56;;;;;;;12;10.9;;;;;;;20.34;70.91211;95669.06;;;;
2022/07/24 01:30:57;;;;;;;12;10.9;;;;;;;20.34;70.91211;95669.06;;;;
2022/07/24 01:31:58;;;;;;;12;10.9;;;;;;;20.34;70.91211;95669.06;;;;
2022/07/24 01:32:59;;;;;;;12;10.9;;;;;;;20.34;70.91211;95669.06;;;;
2022/07/24 01:34:00;;;;;;;12;10.9;;;;;;;20.34;70.91211;95669.06;;;;
2022/07/24 01:35:00;;;;;;;12;10.9;;;;;;;20.34;70.91211;95669.06;;;;
2022/07/24 01:36:01;;;;;;;12;10.9;;;;;;;20.34;70.91211;95669.06;;;;
2022/07/24 01:37:02;;;;;;;12.5;11.45;;;;;;;20.32;71.09668;95660.86;;;;
2022/07/24 01:38:03;;;;;;;12.5;11.45;;;;;;;20.32;71.09668;95660.86;;;;
2022/07/24 01:39:03;;;;;;;12.5;11.45;;;;;;;20.32;71.09668;95660.86;;;;
2022/07/24 01:40:04;;;;;;;12.5;11.45;;;;;;;20.32;71.09668;95660.86;;;;
2022/07/24 01:41:05;;;;;;;12.5;11.45;;;;;;;20.32;71.09668;95660.86;;;;
2022/07/24 01:42:06;;;;;;;12.5;11.45;;;;;;;20.32;71.09668;95660.86;;;;
2022/07/24 01:43:07;;;;;;;12.5;11.45;;;;;;;20.32;71.09668;95660.86;;;;
2022/07/24 01:44:08;;;;;;;12.5;11.45;;;;;;;20.32;71.09668;95660.86;;;;
2022/07/24 01:45:08;;;;;;;12.5;11.45;;;;;;;20.32;71.09668;95660.86;;;;
2022/07/24 01:46:09;;;;;;;12.5;11.45;;;;;;;20.32;71.09668;95660.86;;;;
2022/07/24 01:47:10;;;;;;;12.4;11.4;;;;;;;20.28;71.27832;95658.42;;;;
2022/07/24 01:48:11;;;;;;;12.4;11.4;;;;;;;20.28;71.27832;95658.42;;;;
2022/07/24 01:49:11;;;;;;;12.4;11.4;;;;;;;20.28;71.27832;95658.42;;;;
2022/07/24 01:50:12;;;;;;;12.4;11.4;;;;;;;20.28;71.27832;95658.42;;;;
2022/07/24 01:51:13;;;;;;;12.4;11.4;;;;;;;20.28;71.27832;95658.42;;;;
2022/07/24 01:52:14;;;;;;;12.4;11.4;;;;;;;20.28;71.27832;95658.42;;;;
2022/07/24 01:53:15;;;;;;;12.4;11.4;;;;;;;20.28;71.27832;95658.42;;;;
2022/07/24 01:54:15;;;;;;;12.4;11.4;;;;;;;20.28;71.27832;95658.42;;;;
2022/07/24 01:55:16;;;;;;;12.4;11.4;;;;;;;20.28;71.27832;95658.42;;;;
2022/07/24 01:56:16;;;;;;;12.4;11.4;;;;;;;20.28;71.27832;95658.42;;;;
2022/07/24 01:57:17;;;;;;;12.4;11.4;;;;;;;20.28;71.27832;95658.42;;;;
2022/07/24 01:58:17;;;;;;;12.65;11.55;;;;;;;20.28;71.38672;95641.93;;;;
2022/07/24 01:59:18;;;;;;;12.65;11.55;;;;;;;20.28;71.38672;95641.93;;;;
2022/07/24 02:00:19;;;;;;;12.65;11.55;;;;;;;20.28;71.38672;95641.93;;;;
2022/07/24 02:01:19;;;;;;;12.65;11.55;;;;;;;20.28;71.38672;95641.93;;;;
2022/07/24 02:02:20;;;;;;;12.65;11.55;;;;;;;20.28;71.38672;95641.93;;;;
2022/07/24 02:03:21;;;;;;;12.65;11.55;;;;;;;20.28;71.38672;95641.93;;;;
2022/07/24 02:04:21;;;;;;;12.65;11.55;;;;;;;20.28;71.38672;95641.93;;;;
2022/07/24 02:05:22;;;;;;;12.65;11.55;;;;;;;20.28;71.38672;95641.93;;;;
2022/07/24 02:06:22;;;;;;;12.65;11.55;;;;;;;20.28;71.38672;95641.93;;;;
2022/07/24 02:07:23;;;;;;;12.65;11.55;;;;;;;20.28;71.38672;95641.93;;;;
2022/07/24 02:08:23;;;;;;;12.5;11.4;;;;;;;20.14;71.56348;95646.97;;;;
2022/07/24 02:09:24;;;;;;;12.5;11.4;;;;;;;20.14;71.56348;95646.97;;;;
2022/07/24 02:10:24;;;;;;;12.5;11.4;;;;;;;20.14;71.56348;95646.97;;;;
2022/07/24 02:11:26;;;;;;;12.5;11.4;;;;;;;20.14;71.56348;95646.97;;;;
2022/07/24 02:12:26;;;;;;;12.5;11.4;;;;;;;20.14;71.56348;95646.97;;;;
2022/07/24 02:13:27;;;;;;;12.5;11.4;;;;;;;20.14;71.56348;95646.97;;;;
2022/07/24 02:14:27;;;;;;;12.5;11.4;;;;;;;20.14;71.56348;95646.97;;;;
2022/07/24 02:15:28;;;;;;;12.5;11.4;;;;;;;20.14;71.56348;95646.97;;;;
2022/07/24 02:16:29;;;;;;;12.5;11.4;;;;;;;20.14;71.56348;95646.97;;;;
2022/07/24 02:17:30;;;;;;;12.5;11.4;;;;;;;20.14;71.56348;95646.97;;;;
2022/07/24 02:18:30;;;;;;;12.5;11.4;;;;;;;20.14;71.56348;95646.97;;;;
2022/07/24 02:19:31;;;;;;;12.75;11.7;;;;;;;19.99;71.9248;95644.17;;;;
2022/07/24 02:20:31;;;;;;;12.75;11.7;;;;;;;19.99;71.9248;95644.17;;;;
2022/07/24 02:21:32;;;;;;;12.75;11.7;;;;;;;19.99;71.9248;95644.17;;;;
2022/07/24 02:22:33;;;;;;;12.75;11.7;;;;;;;19.99;71.9248;95644.17;;;;
2022/07/24 02:23:34;;;;;;;12.75;11.7;;;;;;;19.99;71.9248;95644.17;;;;
2022/07/24 02:24:34;;;;;;;12.75;11.7;;;;;;;19.99;71.9248;95644.17;;;;
2022/07/24 02:25:35;;;;;;;12.75;11.7;;;;;;;19.99;71.9248;95644.17;;;;
2022/07/24 02:26:36;;;;;;;12.75;11.7;;;;;;;19.99;71.9248;95644.17;;;;
2022/07/24 02:27:36;;;;;;;12.75;11.7;;;;;;;19.99;71.9248;95644.17;;;;
2022/07/24 02:28:37;;;;;;;12.75;11.7;;;;;;;19.99;71.9248;95644.17;;;;
2022/07/24 02:29:39;;;;;;;13.15;12.05;;;;;;;19.72;72.32031;95644.02;;;;
2022/07/24 02:30:40;;;;;;;13.15;12.05;;;;;;;19.72;72.32031;95644.02;;;;
2022/07/24 02:31:41;;;;;;;13.15;12.05;;;;;;;19.72;72.32031;95644.02;;;;
2022/07/24 02:32:41;;;;;;;13.15;12.05;;;;;;;19.72;72.32031;95644.02;;;;
2022/07/24 02:33:42;;;;;;;13.15;12.05;;;;;;;19.72;72.32031;95644.02;;;;
2022/07/24 02:34:43;;;;;;;13.15;12.05;;;;;;;19.72;72.32031;95644.02;;;;
2022/07/24 02:35:43;;;;;;;13.15;12.05;;;;;;;19.72;72.32031;95644.02;;;;
2022/07/24 02:36:44;;;;;;;13.15;12.05;;;;;;;19.72;72.32031;95644.02;;;;
2022/07/24 02:37:44;;;;;;;13.15;12.05;;;;;;;19.72;72.32031;95644.02;;;;
2022/07/24 02:38:45;;;;;;;13.15;12.05;;;;;;;19.72;72.32031;95644.02;;;;
2022/07/24 02:39:46;;;;;;;13.15;12.05;;;;;;;19.72;72.32031;95644.02;;;;
2022/07/24 02:40:46;;;;;;;13.3;12.1;;;;;;;19.5;72.80176;95645.9;;;;
2022/07/24 02:41:47;;;;;;;13.3;12.1;;;;;;;19.5;72.80176;95645.9;;;;
2022/07/24 02:42:47;;;;;;;13.3;12.1;;;;;;;19.5;72.80176;95645.9;;;;
2022/07/24 02:43:48;;;;;;;13.3;12.1;;;;;;;19.5;72.80176;95645.9;;;;
2022/07/24 02:44:49;;;;;;;13.3;12.1;;;;;;;19.5;72.80176;95645.9;;;;
2022/07/24 02:45:49;;;;;;;13.3;12.1;;;;;;;19.5;72.80176;95645.9;;;;
2022/07/24 02:46:50;;;;;;;13.3;12.1;;;;;;;19.5;72.80176;95645.9;;;;
2022/07/24 02:47:50;;;;;;;13.3;12.1;;;;;;;19.5;72.80176;95645.9;;;;
2022/07/24 02:48:53;;;;;;;13.3;12.1;;;;;;;19.5;72.80176;95645.9;;;;
2022/07/24 02:49:54;;;;;;;13.3;12.1;;;;;;;19.5;72.80176;95645.9;;;;
2022/07/24 02:50:54;;;;;;;14.8;13.4;;;;;;;19.33;73.17969;95652.89;;;;
2022/07/24 02:51:55;;;;;;;14.8;13.4;;;;;;;19.33;73.17969;95652.89;;;;
2022/07/24 02:52:55;;;;;;;14.8;13.4;;;;;;;19.33;73.17969;95652.89;;;;
2022/07/24 02:53:56;;;;;;;14.8;13.4;;;;;;;19.33;73.17969;95652.89;;;;
2022/07/24 02:54:57;;;;;;;14.8;13.4;;;;;;;19.33;73.17969;95652.89;;;;
2022/07/24 02:55:58;;;;;;;14.8;13.4;;;;;;;19.33;73.17969;95652.89;;;;
2022/07/24 02:56:58;;;;;;;14.8;13.4;;;;;;;19.33;73.17969;95652.89;;;;
2022/07/24 02:57:59;;;;;;;14.8;13.4;;;;;;;19.33;73.17969;95652.89;;;;
2022/07/24 02:58:59;;;;;;;14.8;13.4;;;;;;;19.33;73.17969;95652.89;;;;
2022/07/24 03:00:00;;;;;;;14.8;13.4;;;;;;;19.33;73.17969;95652.89;;;;
2022/07/24 03:01:01;;;;;;;14.8;13.4;;;;;;;19.33;73.17969;95652.89;;;;
2022/07/24 03:02:02;;;;;;;14.25;12.95;;;;;;;19.22;73.55762;95649.31;;;;
2022/07/24 03:03:02;;;;;;;14.25;12.95;;;;;;;19.22;73.55762;95649.31;;;;
2022/07/24 03:04:04;;;;;;;14.25;12.95;;;;;;;19.22;73.55762;95649.31;;;;
2022/07/24 03:05:05;;;;;;;14.25;12.95;;;;;;;19.22;73.55762;95649.31;;;;
2022/07/24 03:06:07;;;;;;;14.25;12.95;;;;;;;19.22;73.55762;95649.31;;;;
2022/07/24 03:07:07;;;;;;;14.25;12.95;;;;;;;19.22;73.55762;95649.31;;;;
2022/07/24 03:08:08;;;;;;;14.25;12.95;;;;;;;19.22;73.55762;95649.31;;;;
2022/07/24 03:09:08;;;;;;;14.25;12.95;;;;;;;19.22;73.55762;95649.31;;;;
2022/07/24 03:10:09;;;;;;;14.25;12.95;;;;;;;19.22;73.55762;95649.31;;;;
2022/07/24 03:11:11;;;;;;;14.25;12.95;;;;;;;19.22;73.55762;95649.31;;;;
2022/07/24 03:12:12;;;;;;;14.25;12.95;;;;;;;19.22;73.55762;95649.31;;;;
2022/07/24 03:13:12;;;;;;;14.85;13.55;;;;;;;19.03;73.96387;95653.97;;;;
2022/07/24 03:14:13;;;;;;;14.85;13.55;;;;;;;19.03;73.96387;95653.97;;;;
2022/07/24 03:15:13;;;;;;;14.85;13.55;;;;;;;19.03;73.96387;95653.97;;;;
2022/07/24 03:16:16;;;;;;;14.85;13.55;;;;;;;19.03;73.96387;95653.97;;;;
2022/07/24 03:17:16;;;;;;;14.85;13.55;;;;;;;19.03;73.96387;95653.97;;;;
2022/07/24 03:18:17;;;;;;;14.85;13.55;;;;;;;19.03;73.96387;95653.97;;;;
2022/07/24 03:19:17;;;;;;;14.85;13.55;;;;;;;19.03;73.96387;95653.97;;;;
2022/07/24 03:20:18;;;;;;;14.85;13.55;;;;;;;19.03;73.96387;95653.97;;;;
2022/07/24 03:21:20;;;;;;;14.85;13.55;;;;;;;19.03;73.96387;95653.97;;;;
2022/07/24 03:22:20;;;;;;;14.85;13.55;;;;;;;19.03;73.96387;95653.97;;;;
2022/07/24 03:23:21;;;;;;;14.7;13.45;;;;;;;18.85;74.40625;95654.75;;;;
2022/07/24 03:24:21;;;;;;;14.7;13.45;;;;;;;18.85;74.40625;95654.75;;;;
2022/07/24 03:25:21;;;;;;;14.7;13.45;;;;;;;18.85;74.40625;95654.75;;;;
2022/07/24 03:26:23;;;;;;;14.7;13.45;;;;;;;18.85;74.40625;95654.75;;;;
2022/07/24 03:27:23;;;;;;;14.7;13.45;;;;;;;18.85;74.40625;95654.75;;;;
2022/07/24 03:28:24;;;;;;;14.7;13.45;;;;;;;18.85;74.40625;95654.75;;;;
2022/07/24 03:29:24;;;;;;;14.7;13.45;;;;;;;18.85;74.40625;95654.75;;;;
2022/07/24 03:30:25;;;;;;;14.7;13.45;;;;;;;18.85;74.40625;95654.75;;;;
2022/07/24 03:31:25;;;;;;;14.7;13.45;;;;;;;18.85;74.40625;95654.75;;;;
2022/07/24 03:32:26;;;;;;;14.7;13.45;;;;;;;18.85;74.40625;95654.75;;;;
2022/07/24 03:33:26;;;;;;;14.7;13.45;;;;;;;18.85;74.40625;95654.75;;;;
2022/07/24 03:34:27;;;;;;;15.4;14.15;;;;;;;18.51;74.875;95644.34;;;;
2022/07/24 03:35:28;;;;;;;15.4;14.15;;;;;;;18.51;74.875;95644.34;;;;
2022/07/24 03:36:28;;;;;;;15.4;14.15;;;;;;;18.51;74.875;95644.34;;;;
2022/07/24 03:37:29;;;;;;;15.4;14.15;;;;;;;18.51;74.875;95644.34;;;;
2022/07/24 03:38:30;;;;;;;15.4;14.15;;;;;;;18.51;74.875;95644.34;;;;
2022/07/24 03:39:30;;;;;;;15.4;14.15;;;;;;;18.51;74.875;95644.34;;;;
2022/07/24 03:40:31;;;;;;;15.4;14.15;;;;;;;18.51;74.875;95644.34;;;;
2022/07/24 03:41:31;;;;;;;15.4;14.15;;;;;;;18.51;74.875;95644.34;;;;
2022/07/24 03:42:32;;;;;;;15.4;14.15;;;;;;;18.51;74.875;95644.34;;;;
2022/07/24 03:43:32;;;;;;;15.4;14.15;;;;;;;18.51;74.875;95644.34;;;;
2022/07/24 03:44:33;;;;;;;15.65;14.35;;;;;;;18.27;75.42578;95648.88;;;;
2022/07/24 03:45:33;;;;;;;15.65;14.35;;;;;;;18.27;75.42578;95648.88;;;;
2022/07/24 03:46:34;;;;;;;15.65;14.35;;;;;;;18.27;75.42578;95648.88;;;;
2022/07/24 03:47:35;;;;;;;15.65;14.35;;;;;;;18.27;75.42578;95648.88;;;;
2022/07/24 03:48:35;;;;;;;15.65;14.35;;;;;;;18.27;75.42578;95648.88;;;;
2022/07/24 03:49:36;;;;;;;15.65;14.35;;;;;;;18.27;75.42578;95648.88;;;;
2022/07/24 03:50:36;;;;;;;15.65;14.35;;;;;;;18.27;75.42578;95648.88;;;;
2022/07/24 03:51:37;;;;;;;15.65;14.35;;;;;;;18.27;75.42578;95648.88;;;;
2022/07/24 03:52:37;;;;;;;15.65;14.35;;;;;;;18.27;75.42578;95648.88;;;;
2022/07/24 03:53:38;;;;;;;15.65;14.35;;;;;;;18.27;75.42578;95648.88;;;;
2022/07/24 03:54:38;;;;;;;15.65;14.35;;;;;;;18.27;75.42578;95648.88;;;;
2022/07/24 03:55:39;;;;;;;18.2;16.6;;;;;;;18.05;75.92383;95650.73;;;;
2022/07/24 03:56:39;;;;;;;18.2;16.6;;;;;;;18.05;75.92383;95650.73;;;;
2022/07/24 03:57:40;;;;;;;18.2;16.6;;;;;;;18.05;75.92383;95650.73;;;;
2022/07/24 03:58:40;;;;;;;18.2;16.6;;;;;;;18.05;75.92383;95650.73;;;;
2022/07/24 03:59:42;;;;;;;18.2;16.6;;;;;;;18.05;75.92383;95650.73;;;;
2022/07/24 04:00:42;;;;;;;18.2;16.6;;;;;;;18.05;75.92383;95650.73;;;;
2022/07/24 04:01:43;;;;;;;18.2;16.6;;;;;;;18.05;75.92383;95650.73;;;;
2022/07/24 04:02:43;;;;;;;18.2;16.6;;;;;;;18.05;75.92383;95650.73;;;;
2022/07/24 04:03:44;;;;;;;18.2;16.6;;;;;;;18.05;75.92383;95650.73;;;;
2022/07/24 04:04:44;;;;;;;18.2;16.6;;;;;;;18.05;75.92383;95650.73;;;;
2022/07/24 04:05:45;;;;;;;18.2;16.6;;;;;;;18.05;75.92383;95650.73;;;;
2022/07/24 04:06:46;;;;;;;18.2;16.6;;;;;;;18.05;75.92383;95650.73;;;;
2022/07/24 04:07:46;;;;;;;18.2;16.6;;;;;;;18.05;75.92383;95650.73;;;;
2022/07/24 04:08:47;;;;;;;18.2;16.6;;;;;;;18.05;75.92383;95650.73;;;;
2022/07/24 04:09:47;;;;;;;18.2;16.6;;;;;;;18.05;75.92383;95650.73;;;;
2022/07/24 04:10:48;;;;;;;18.2;16.6;;;;;;;18.05;75.92383;95650.73;;;;
2022/07/24 04:11:48;;;;;;;18.2;16.6;;;;;;;18.05;75.92383;95650.73;;;;
2022/07/24 04:12:49;;;;;;;18.2;16.6;;;;;;;18.05;75.92383;95650.73;;;;
2022/07/24 04:13:49;;;;;;;18.2;16.6;;;;;;;18.05;75.92383;95650.73;;;;
2022/07/24 04:14:50;;;;;;;18.2;16.6;;;;;;;18.05;75.92383;95650.73;;;;
2022/07/24 04:15:50;;;;;;;18.2;16.6;;;;;;;18.05;75.92383;95650.73;;;;
2022/07/24 04:16:51;;;;;;;17.4;15.9;;;;;;;17.89;76.63281;95662.6;;;;
2022/07/24 04:17:52;;;;;;;17.4;15.9;;;;;;;17.89;76.63281;95662.6;;;;
2022/07/24 04:18:52;;;;;;;17.4;15.9;;;;;;;17.89;76.63281;95662.6;;;;
2022/07/24 04:19:53;;;;;;;17.4;15.9;;;;;;;17.89;76.63281;95662.6;;;;
2022/07/24 04:20:53;;;;;;;17.4;15.9;;;;;;;17.89;76.63281;95662.6;;;;
2022/07/24 04:21:54;;;;;;;17.4;15.9;;;;;;;17.89;76.63281;95662.6;;;;
2022/07/24 04:22:54;;;;;;;17.4;15.9;;;;;;;17.89;76.63281;95662.6;;;;
2022/07/24 04:23:55;;;;;;;17.4;15.9;;;;;;;17.89;76.63281;95662.6;;;;
2022/07/24 04:24:55;;;;;;;17.4;15.9;;;;;;;17.89;76.63281;95662.6;;;;
2022/07/24 04:25:56;;;;;;;17.4;15.9;;;;;;;17.89;76.63281;95662.6;;;;
2022/07/24 04:26:57;;;;;;;17.4;15.9;;;;;;;17.89;76.63281;95662.6;;;;
2022/07/24 04:27:58;;;;;;;17.4;15.9;;;;;;;17.89;76.63281;95662.6;;;;
2022/07/24 04:28:58;;;;;;;17.4;15.9;;;;;;;17.89;76.63281;95662.6;;;;
2022/07/24 04:29:59;;;;;;;17.4;15.9;;;;;;;17.89;76.63281;95662.6;;;;
2022/07/24 04:30:59;;;;;;;17.4;15.9;;;;;;;17.89;76.63281;95662.6;;;;
2022/07/24 04:32:00;;;;;;;17.4;15.9;;;;;;;17.89;76.63281;95662.6;;;;
2022/07/24 04:33:00;;;;;;;17.4;15.9;;;;;;;17.89;76.63281;95662.6;;;;
2022/07/24 04:34:01;;;;;;;17.4;15.9;;;;;;;17.89;76.63281;95662.6;;;;
2022/07/24 04:35:02;;;;;;;17.4;15.9;;;;;;;17.89;76.63281;95662.6;;;;
2022/07/24 04:36:02;;;;;;;17.4;15.9;;;;;;;17.89;76.63281;95662.6;;;;
2022/07/24 04:37:04;;;;;;;17.4;15.9;;;;;;;17.89;76.63281;95662.6;;;;
2022/07/24 04:38:04;;;;;;;18.05;16.4;;;;;;;17.99;77.10742;95683.73;;;;
2022/07/24 04:39:05;;;;;;;18.05;16.4;;;;;;;17.99;77.10742;95683.73;;;;
2022/07/24 04:40:05;;;;;;;18.05;16.4;;;;;;;17.99;77.10742;95683.73;;;;
2022/07/24 04:41:07;;;;;;;18.05;16.4;;;;;;;17.99;77.10742;95683.73;;;;
2022/07/24 04:42:08;;;;;;;18.05;16.4;;;;;;;17.99;77.10742;95683.73;;;;
2022/07/24 04:43:08;;;;;;;18.05;16.4;;;;;;;17.99;77.10742;95683.73;;;;
2022/07/24 04:44:09;;;;;;;18.05;16.4;;;;;;;17.99;77.10742;95683.73;;;;
2022/07/24 04:45:10;;;;;;;18.05;16.4;;;;;;;17.99;77.10742;95683.73;;;;
2022/07/24 04:46:10;;;;;;;18.05;16.4;;;;;;;17.99;77.10742;95683.73;;;;
2022/07/24 04:47:11;;;;;;;18.05;16.4;;;;;;;17.99;77.10742;95683.73;;;;
2022/07/24 04:48:11;;;;;;;18.05;16.4;;;;;;;17.99;77.10742;95683.73;;;;
2022/07/24 04:49:12;;;;;;;18.05;16.4;;;;;;;17.99;77.10742;95683.73;;;;
2022/07/24 04:50:12;;;;;;;18.05;16.4;;;;;;;17.99;77.10742;95683.73;;;;
2022/07/24 04:51:13;;;;;;;18.05;16.4;;;;;;;17.99;77.10742;95683.73;;;;
2022/07/24 04:52:14;;;;;;;18.05;16.4;;;;;;;17.99;77.10742;95683.73;;;;
2022/07/24 04:53:14;;;;;;;18.05;16.4;;;;;;;17.99;77.10742;95683.73;;;;
2022/07/24 04:54:15;;;;;;;18.05;16.4;;;;;;;17.99;77.10742;95683.73;;;;
2022/07/24 04:55:16;;;;;;;18.05;16.4;;;;;;;17.99;77.10742;95683.73;;;;
2022/07/24 04:56:16;;;;;;;18.05;16.4;;;;;;;17.99;77.10742;95683.73;;;;
2022/07/24 04:57:17;;;;;;;18.05;16.4;;;;;;;17.99;77.10742;95683.73;;;;
2022/07/24 04:58:17;;;;;;;18.05;16.4;;;;;;;17.99;77.10742;95683.73;;;;
2022/07/24 04:59:18;;;;;;;19.15;17.45;;;;;;;18.44;77.21875;95693.28;;;;
2022/07/24 05:00:18;;;;;;;19.15;17.45;;;;;;;18.44;77.21875;95693.28;;;;
2022/07/24 05:01:19;;;;;;;19.15;17.45;;;;;;;18.44;77.21875;95693.28;;;;
2022/07/24 05:02:19;;;;;;;19.15;17.45;;;;;;;18.44;77.21875;95693.28;;;;
2022/07/24 05:03:20;;;;;;;19.15;17.45;;;;;;;18.44;77.21875;95693.28;;;;
2022/07/24 05:04:20;;;;;;;19.15;17.45;;;;;;;18.44;77.21875;95693.28;;;;
2022/07/24 05:05:21;;;;;;;19.15;17.45;;;;;;;18.44;77.21875;95693.28;;;;
2022/07/24 05:06:22;;;;;;;19.15;17.45;;;;;;;18.44;77.21875;95693.28;;;;
2022/07/24 05:07:22;;;;;;;19.15;17.45;;;;;;;18.44;77.21875;95693.28;;;;
2022/07/24 05:08:23;;;;;;;19.15;17.45;;;;;;;18.44;77.21875;95693.28;;;;
2022/07/24 05:09:23;;;;;;;19.15;17.45;;;;;;;18.44;77.21875;95693.28;;;;
2022/07/24 05:10:24;;;;;;;19.55;17.75;;;;;;;18.94;76.89941;95703.19;;;;
2022/07/24 05:11:24;;;;;;;19.55;17.75;;;;;;;18.94;76.89941;95703.19;;;;
2022/07/24 05:12:25;;;;;;;19.55;17.75;;;;;;;18.94;76.89941;95703.19;;;;
2022/07/24 05:13:26;;;;;;;19.55;17.75;;;;;;;18.94;76.89941;95703.19;;;;
2022/07/24 05:14:27;;;;;;;19.55;17.75;;;;;;;18.94;76.89941;95703.19;;;;
2022/07/24 05:15:27;;;;;;;19.55;17.75;;;;;;;18.94;76.89941;95703.19;;;;
2022/07/24 05:16:28;;;;;;;19.55;17.75;;;;;;;18.94;76.89941;95703.19;;;;
2022/07/24 05:17:28;;;;;;;19.55;17.75;;;;;;;18.94;76.89941;95703.19;;;;
2022/07/24 05:18:29;;;;;;;19.55;17.75;;;;;;;18.94;76.89941;95703.19;;;;
2022/07/24 05:19:30;;;;;;;19.55;17.75;;;;;;;18.94;76.89941;95703.19;;;;
2022/07/24 05:20:30;;;;;;;19.1;17.45;;;;;;;19.24;76.83984;95713.39;;;;
2022/07/24 05:21:31;;;;;;;19.1;17.45;;;;;;;19.24;76.83984;95713.39;;;;
2022/07/24 05:22:32;;;;;;;19.1;17.45;;;;;;;19.24;76.83984;95713.39;;;;
2022/07/24 05:23:33;;;;;;;19.1;17.45;;;;;;;19.24;76.83984;95713.39;;;;
2022/07/24 05:24:33;;;;;;;19.1;17.45;;;;;;;19.24;76.83984;95713.39;;;;
2022/07/24 05:25:34;;;;;;;19.1;17.45;;;;;;;19.24;76.83984;95713.39;;;;
2022/07/24 05:26:34;;;;;;;19.1;17.45;;;;;;;19.24;76.83984;95713.39;;;;
2022/07/24 05:27:35;;;;;;;19.1;17.45;;;;;;;19.24;76.83984;95713.39;;;;
2022/07/24 05:28:36;;;;;;;19.1;17.45;;;;;;;19.24;76.83984;95713.39;;;;
2022/07/24 05:29:37;;;;;;;19.1;17.45;;;;;;;19.24;76.83984;95713.39;;;;
2022/07/24 05:30:37;;;;;;;19.1;17.45;;;;;;;19.24;76.83984;95713.39;;;;
2022/07/24 05:31:38;;;;;;;18.75;17.05;;;;;;;19.54;76.77246;95705.61;;;;
2022/07/24 05:32:38;;;;;;;18.75;17.05;;;;;;;19.54;76.77246;95705.61;;;;
2022/07/24 05:33:39;;;;;;;18.75;17.05;;;;;;;19.54;76.77246;95705.61;;;;
2022/07/24 05:34:39;;;;;;;18.75;17.05;;;;;;;19.54;76.77246;95705.61;;;;
2022/07/24 05:35:40;;;;;;;18.75;17.05;;;;;;;19.54;76.77246;95705.61;;;;
2022/07/24 05:36:41;;;;;;;18.75;17.05;;;;;;;19.54;76.77246;95705.61;;;;
2022/07/24 05:37:42;;;;;;;18.75;17.05;;;;;;;19.54;76.77246;95705.61;;;;
2022/07/24 05:38:43;;;;;;;18.75;17.05;;;;;;;19.54;76.77246;95705.61;;;;
2022/07/24 05:39:44;;;;;;;18.75;17.05;;;;;;;19.54;76.77246;95705.61;;;;